sensor_id;sensor_type;location;lat;lon;timestamp;pressure;altitude;pressure_sealevel;temperature;humidity
5703;BME280;2876;51.738;10.050;2023-10-09T00:04:47;99737.50;;;12.69;84.33
5703;BME280;2876;51.738;10.050;2023-10-09T00:10:49;99732.13;;;12.76;83.22
5703;BME280;2876;51.738;10.050;2023-10-09T00:16:56;99718.28;;;12.72;83.92
5703;BME280;2876;51.738;10.050;2023-10-09T00:23:04;99705.63;;;12.66;85.48
5703;BME280;2876;51.738;10.050;2023-10-09T00:29:15;99705.44;;;12.94;84.09
5703;BME280;2876;51.738;10.050;2023-10-09T00:35:29;99701.47;;;12.57;85.79
5703;BME280;2876;51.738;10.050;2023-10-09T00:41:46;99669.81;;;12.59;87.48
5703;BME280;2876;51.738;10.050;2023-10-09T00:47:49;99677.06;;;12.58;87.05
5703;BME280;2876;51.738;10.050;2023-10-09T00:53:57;99647.63;;;12.43;88.02
5703;BME280;2876;51.738;10.050;2023-10-09T01:00:00;99623.00;;;12.47;88.58
5703;BME280;2876;51.738;10.050;2023-10-09T01:06:05;99628.81;;;12.63;87.56
5703;BME280;2876;51.738;10.050;2023-10-09T01:12:13;99591.13;;;12.57;88.13
5703;BME280;2876;51.738;10.050;2023-10-09T01:18:21;99617.19;;;12.36;88.90
5703;BME280;2876;51.738;10.050;2023-10-09T01:24:33;99618.03;;;12.43;88.91
5703;BME280;2876;51.738;10.050;2023-10-09T01:30:41;99587.16;;;12.19;89.89
5703;BME280;2876;51.738;10.050;2023-10-09T01:36:43;99578.28;;;12.39;89.23
5703;BME280;2876;51.738;10.050;2023-10-09T01:42:45;99559.06;;;12.35;89.41
5703;BME280;2876;51.738;10.050;2023-10-09T01:48:47;99558.22;;;12.41;89.75
5703;BME280;2876;51.738;10.050;2023-10-09T01:54:51;99576.03;;;12.36;89.80
5703;BME280;2876;51.738;10.050;2023-10-09T02:00:53;99590.09;;;12.38;90.87
5703;BME280;2876;51.738;10.050;2023-10-09T02:06:58;99603.28;;;12.13;92.19
5703;BME280;2876;51.738;10.050;2023-10-09T02:13:06;99600.38;;;12.21;91.94
5703;BME280;2876;51.738;10.050;2023-10-09T02:19:09;99578.88;;;12.14;91.98
5703;BME280;2876;51.738;10.050;2023-10-09T02:25:30;99591.09;;;12.30;91.98
5703;BME280;2876;51.738;10.050;2023-10-09T02:31:45;99571.63;;;12.22;92.11
5703;BME280;2876;51.738;10.050;2023-10-09T02:37:54;99550.56;;;12.65;92.11
5703;BME280;2876;51.738;10.050;2023-10-09T02:43:59;99537.31;;;12.24;93.68
5703;BME280;2876;51.738;10.050;2023-10-09T02:50:12;99531.31;;;12.35;94.04
5703;BME280;2876;51.738;10.050;2023-10-09T02:56:20;99522.00;;;12.37;94.97
5703;BME280;2876;51.738;10.050;2023-10-09T03:02:29;99509.59;;;12.50;95.70
5703;BME280;2876;51.738;10.050;2023-10-09T03:08:33;99501.94;;;12.47;95.59
5703;BME280;2876;51.738;10.050;2023-10-09T03:14:40;99499.47;;;12.45;96.44
5703;BME280;2876;51.738;10.050;2023-10-09T03:20:43;99487.66;;;12.59;96.90
5703;BME280;2876;51.738;10.050;2023-10-09T03:26:46;99484.97;;;12.46;97.10
5703;BME280;2876;51.738;10.050;2023-10-09T03:32:49;99473.59;;;12.37;97.87
5703;BME280;2876;51.738;10.050;2023-10-09T03:38:55;99474.22;;;12.33;98.65
5703;BME280;2876;51.738;10.050;2023-10-09T03:45:00;99469.06;;;12.31;99.50
5703;BME280;2876;51.738;10.050;2023-10-09T03:51:02;99454.53;;;12.59;100.00
5703;BME280;2876;51.738;10.050;2023-10-09T03:57:13;99445.44;;;12.47;100.00
5703;BME280;2876;51.738;10.050;2023-10-09T04:03:24;99456.00;;;12.48;100.00
5703;BME280;2876;51.738;10.050;2023-10-09T04:09:27;99452.25;;;12.56;100.00
5703;BME280;2876;51.738;10.050;2023-10-09T04:15:30;99430.72;;;12.62;100.00
5703;BME280;2876;51.738;10.050;2023-10-09T04:21:38;99430.94;;;12.67;100.00
5703;BME280;2876;51.738;10.050;2023-10-09T04:27:42;99417.66;;;12.73;100.00
5703;BME280;2876;51.738;10.050;2023-10-09T04:33:47;99417.00;;;12.84;100.00
5703;BME280;2876;51.738;10.050;2023-10-09T04:40:09;99420.06;;;12.94;100.00
5703;BME280;2876;51.738;10.050;2023-10-09T04:46:15;99425.47;;;12.87;100.00
5703;BME280;2876;51.738;10.050;2023-10-09T04:52:25;99422.56;;;12.89;100.00
5703;BME280;2876;51.738;10.050;2023-10-09T04:58:27;99416.72;;;12.99;100.00
5703;BME280;2876;51.738;10.050;2023-10-09T05:04:29;99428.09;;;13.14;100.00
5703;BME280;2876;51.738;10.050;2023-10-09T05:10:59;99432.00;;;13.25;100.00
5703;BME280;2876;51.738;10.050;2023-10-09T05:17:02;99435.59;;;13.50;100.00
5703;BME280;2876;51.738;10.050;2023-10-09T05:23:04;99448.50;;;13.41;100.00
5703;BME280;2876;51.738;10.050;2023-10-09T05:29:26;99449.31;;;13.42;100.00
5703;BME280;2876;51.738;10.050;2023-10-09T05:35:31;99442.41;;;13.59;100.00
5703;BME280;2876;51.738;10.050;2023-10-09T05:41:41;99447.81;;;13.53;100.00
5703;BME280;2876;51.738;10.050;2023-10-09T05:47:54;99447.72;;;13.66;100.00
5703;BME280;2876;51.738;10.050;2023-10-09T05:54:00;99463.91;;;13.66;100.00
5703;BME280;2876;51.738;10.050;2023-10-09T06:00:26;99482.75;;;13.73;100.00
5703;BME280;2876;51.738;10.050;2023-10-09T06:06:46;99502.19;;;13.81;100.00
5703;BME280;2876;51.738;10.050;2023-10-09T06:12:57;99487.28;;;13.79;100.00
5703;BME280;2876;51.738;10.050;2023-10-09T06:19:06;99474.75;;;13.91;100.00
5703;BME280;2876;51.738;10.050;2023-10-09T06:25:15;99456.38;;;14.06;100.00
5703;BME280;2876;51.738;10.050;2023-10-09T06:31:20;99468.44;;;14.04;100.00
5703;BME280;2876;51.738;10.050;2023-10-09T06:37:32;99472.69;;;14.18;100.00
5703;BME280;2876;51.738;10.050;2023-10-09T06:43:34;99526.22;;;14.46;100.00
5703;BME280;2876;51.738;10.050;2023-10-09T06:49:48;99518.16;;;14.39;100.00
5703;BME280;2876;51.738;10.050;2023-10-09T06:56:10;99477.34;;;14.36;100.00
5703;BME280;2876;51.738;10.050;2023-10-09T07:02:24;99499.56;;;14.63;100.00
5703;BME280;2876;51.738;10.050;2023-10-09T07:08:30;99514.22;;;14.67;100.00
5703;BME280;2876;51.738;10.050;2023-10-09T07:14:39;99520.06;;;14.89;100.00
5703;BME280;2876;51.738;10.050;2023-10-09T07:20:41;99522.63;;;15.02;100.00
5703;BME280;2876;51.738;10.050;2023-10-09T07:27:00;99524.06;;;15.60;100.00
5703;BME280;2876;51.738;10.050;2023-10-09T07:33:08;99527.91;;;15.34;100.00
5703;BME280;2876;51.738;10.050;2023-10-09T07:39:14;99534.50;;;15.19;100.00
5703;BME280;2876;51.738;10.050;2023-10-09T07:45:18;99539.91;;;15.19;100.00
5703;BME280;2876;51.738;10.050;2023-10-09T07:51:21;99532.84;;;15.37;100.00
5703;BME280;2876;51.738;10.050;2023-10-09T07:57:32;99535.41;;;15.50;100.00
5703;BME280;2876;51.738;10.050;2023-10-09T08:03:47;99536.13;;;15.57;100.00
5703;BME280;2876;51.738;10.050;2023-10-09T08:09:59;99532.09;;;15.66;100.00
5703;BME280;2876;51.738;10.050;2023-10-09T08:16:19;99534.56;;;15.86;100.00
5703;BME280;2876;51.738;10.050;2023-10-09T08:22:30;99529.22;;;15.80;100.00
5703;BME280;2876;51.738;10.050;2023-10-09T08:28:32;99522.38;;;15.95;100.00
5703;BME280;2876;51.738;10.050;2023-10-09T08:34:44;99519.66;;;15.95;100.00
5703;BME280;2876;51.738;10.050;2023-10-09T08:41:10;99515.13;;;15.78;100.00
5703;BME280;2876;51.738;10.050;2023-10-09T08:47:24;99518.97;;;16.00;100.00
5703;BME280;2876;51.738;10.050;2023-10-09T08:53:27;99513.25;;;16.08;100.00
5703;BME280;2876;51.738;10.050;2023-10-09T08:59:33;99507.81;;;16.08;100.00
5703;BME280;2876;51.738;10.050;2023-10-09T09:05:56;99503.94;;;16.16;100.00
5703;BME280;2876;51.738;10.050;2023-10-09T09:11:59;99495.50;;;16.24;100.00
5703;BME280;2876;51.738;10.050;2023-10-09T09:18:08;99482.56;;;16.38;100.00
5703;BME280;2876;51.738;10.050;2023-10-09T09:24:23;99470.34;;;16.47;100.00
5703;BME280;2876;51.738;10.050;2023-10-09T09:30:27;99481.75;;;16.61;100.00
5703;BME280;2876;51.738;10.050;2023-10-09T09:36:36;99478.75;;;16.81;100.00
5703;BME280;2876;51.738;10.050;2023-10-09T09:42:42;99502.03;;;16.93;100.00
5703;BME280;2876;51.738;10.050;2023-10-09T09:48:48;99505.09;;;16.97;100.00
5703;BME280;2876;51.738;10.050;2023-10-09T09:54:50;99487.31;;;17.01;100.00
5703;BME280;2876;51.738;10.050;2023-10-09T10:00:56;99465.38;;;17.26;99.58
5703;BME280;2876;51.738;10.050;2023-10-09T10:07:05;99442.50;;;17.22;99.69
5703;BME280;2876;51.738;10.050;2023-10-09T10:13:11;99439.94;;;17.44;99.32
5703;BME280;2876;51.738;10.050;2023-10-09T10:19:19;99435.63;;;17.88;98.40
5703;BME280;2876;51.738;10.050;2023-10-09T10:31:57;99435.47;;;17.78;96.53
5703;BME280;2876;51.738;10.050;2023-10-09T10:44:31;99428.72;;;17.12;100.00
5703;BME280;2876;51.738;10.050;2023-10-09T10:50:44;99435.31;;;17.16;99.40
5703;BME280;2876;51.738;10.050;2023-10-09T10:56:47;99426.19;;;17.34;99.22
5703;BME280;2876;51.738;10.050;2023-10-09T11:02:50;99417.19;;;17.45;98.39
5703;BME280;2876;51.738;10.050;2023-10-09T11:08:54;99416.78;;;17.53;98.25
5703;BME280;2876;51.738;10.050;2023-10-09T11:14:57;99408.75;;;17.58;98.17
5703;BME280;2876;51.738;10.050;2023-10-09T11:21:08;99393.41;;;17.64;98.49
5703;BME280;2876;51.738;10.050;2023-10-09T11:27:10;99391.25;;;17.94;95.91
5703;BME280;2876;51.738;10.050;2023-10-09T11:33:21;99380.16;;;18.13;95.98
5703;BME280;2876;51.738;10.050;2023-10-09T11:39:38;99382.94;;;18.01;95.78
5703;BME280;2876;51.738;10.050;2023-10-09T11:46:11;99379.16;;;17.85;96.65
5703;BME280;2876;51.738;10.050;2023-10-09T11:52:14;99390.19;;;17.95;95.63
5703;BME280;2876;51.738;10.050;2023-10-09T11:58:17;99420.38;;;17.99;95.29
5703;BME280;2876;51.738;10.050;2023-10-09T12:04:28;99452.44;;;17.85;95.95
5703;BME280;2876;51.738;10.050;2023-10-09T12:10:34;99470.44;;;17.63;97.83
5703;BME280;2876;51.738;10.050;2023-10-09T12:16:40;99480.25;;;17.52;100.00
5703;BME280;2876;51.738;10.050;2023-10-09T12:22:52;99471.34;;;17.28;100.00
5703;BME280;2876;51.738;10.050;2023-10-09T12:28:54;99463.41;;;17.38;100.00
5703;BME280;2876;51.738;10.050;2023-10-09T12:34:55;99453.66;;;17.25;100.00
5703;BME280;2876;51.738;10.050;2023-10-09T12:41:06;99453.44;;;17.27;100.00
5703;BME280;2876;51.738;10.050;2023-10-09T12:47:28;99457.25;;;17.03;100.00
5703;BME280;2876;51.738;10.050;2023-10-09T12:53:30;99451.38;;;16.94;100.00
5703;BME280;2876;51.738;10.050;2023-10-09T12:59:33;99452.94;;;16.78;100.00
5703;BME280;2876;51.738;10.050;2023-10-09T13:05:50;99447.63;;;16.36;100.00
5703;BME280;2876;51.738;10.050;2023-10-09T13:11:58;99461.63;;;16.45;100.00
5703;BME280;2876;51.738;10.050;2023-10-09T13:18:03;99463.97;;;16.65;100.00
5703;BME280;2876;51.738;10.050;2023-10-09T13:24:09;99460.56;;;16.46;100.00
5703;BME280;2876;51.738;10.050;2023-10-09T13:30:24;99471.63;;;16.56;100.00
5703;BME280;2876;51.738;10.050;2023-10-09T13:36:26;99466.22;;;16.56;100.00
5703;BME280;2876;51.738;10.050;2023-10-09T13:42:30;99461.84;;;16.43;100.00
5703;BME280;2876;51.738;10.050;2023-10-09T13:48:35;99477.63;;;16.46;100.00
5703;BME280;2876;51.738;10.050;2023-10-09T13:54:40;99470.44;;;16.52;100.00
5703;BME280;2876;51.738;10.050;2023-10-09T14:00:42;99470.47;;;16.64;100.00
5703;BME280;2876;51.738;10.050;2023-10-09T14:06:49;99472.47;;;16.68;100.00
5703;BME280;2876;51.738;10.050;2023-10-09T14:12:59;99471.28;;;16.64;100.00
5703;BME280;2876;51.738;10.050;2023-10-09T14:19:01;99476.72;;;16.88;100.00
5703;BME280;2876;51.738;10.050;2023-10-09T14:25:08;99478.84;;;16.86;100.00
5703;BME280;2876;51.738;10.050;2023-10-09T14:31:16;99475.75;;;16.94;100.00
5703;BME280;2876;51.738;10.050;2023-10-09T14:37:22;99470.13;;;16.84;100.00
5703;BME280;2876;51.738;10.050;2023-10-09T14:43:25;99466.72;;;16.88;100.00
5703;BME280;2876;51.738;10.050;2023-10-09T14:49:35;99465.28;;;16.97;100.00
5703;BME280;2876;51.738;10.050;2023-10-09T14:55:39;99466.34;;;16.96;100.00
5703;BME280;2876;51.738;10.050;2023-10-09T15:01:43;99467.63;;;16.94;100.00
5703;BME280;2876;51.738;10.050;2023-10-09T15:07:45;99464.84;;;16.77;100.00
5703;BME280;2876;51.738;10.050;2023-10-09T15:13:48;99464.81;;;16.89;100.00
5703;BME280;2876;51.738;10.050;2023-10-09T15:19:50;99462.00;;;16.95;100.00
5703;BME280;2876;51.738;10.050;2023-10-09T15:33:02;99470.84;;;16.91;100.00
5703;BME280;2876;51.738;10.050;2023-10-09T15:39:07;99477.66;;;16.93;100.00
5703;BME280;2876;51.738;10.050;2023-10-09T15:45:17;99467.78;;;16.87;100.00
5703;BME280;2876;51.738;10.050;2023-10-09T15:51:19;99466.13;;;16.86;100.00
5703;BME280;2876;51.738;10.050;2023-10-09T15:57:21;99479.91;;;17.08;100.00
5703;BME280;2876;51.738;10.050;2023-10-09T16:03:23;99493.31;;;17.03;100.00
5703;BME280;2876;51.738;10.050;2023-10-09T16:09:26;99486.34;;;17.07;100.00
5703;BME280;2876;51.738;10.050;2023-10-09T16:15:30;99496.50;;;17.00;100.00
5703;BME280;2876;51.738;10.050;2023-10-09T16:21:34;99489.31;;;16.94;100.00
5703;BME280;2876;51.738;10.050;2023-10-09T16:27:37;99490.28;;;16.76;100.00
5703;BME280;2876;51.738;10.050;2023-10-09T16:33:42;99497.34;;;16.77;100.00
5703;BME280;2876;51.738;10.050;2023-10-09T16:39:44;99503.81;;;16.99;100.00
5703;BME280;2876;51.738;10.050;2023-10-09T16:45:46;99503.13;;;16.81;100.00
5703;BME280;2876;51.738;10.050;2023-10-09T16:51:49;99501.44;;;16.68;100.00
5703;BME280;2876;51.738;10.050;2023-10-09T16:57:51;99521.72;;;16.89;100.00
5703;BME280;2876;51.738;10.050;2023-10-09T17:03:53;99517.00;;;16.84;100.00
5703;BME280;2876;51.738;10.050;2023-10-09T17:10:00;99526.56;;;16.87;100.00
5703;BME280;2876;51.738;10.050;2023-10-09T17:16:02;99524.69;;;16.87;100.00
5703;BME280;2876;51.738;10.050;2023-10-09T17:22:04;99532.09;;;17.04;100.00
5703;BME280;2876;51.738;10.050;2023-10-09T17:28:14;99523.38;;;16.90;100.00
5703;BME280;2876;51.738;10.050;2023-10-09T17:34:24;99526.56;;;16.87;100.00
5703;BME280;2876;51.738;10.050;2023-10-09T17:40:28;99531.16;;;17.10;100.00
5703;BME280;2876;51.738;10.050;2023-10-09T17:46:30;99540.44;;;17.14;100.00
5703;BME280;2876;51.738;10.050;2023-10-09T17:52:35;99553.28;;;16.83;100.00
5703;BME280;2876;51.738;10.050;2023-10-09T17:58:38;99554.94;;;16.96;100.00
5703;BME280;2876;51.738;10.050;2023-10-09T18:04:41;99558.59;;;16.78;100.00
5703;BME280;2876;51.738;10.050;2023-10-09T18:10:44;99563.78;;;16.80;100.00
5703;BME280;2876;51.738;10.050;2023-10-09T18:16:47;99563.06;;;16.84;100.00
5703;BME280;2876;51.738;10.050;2023-10-09T18:22:50;99575.81;;;16.95;100.00
5703;BME280;2876;51.738;10.050;2023-10-09T18:28:53;99565.78;;;16.84;100.00
5703;BME280;2876;51.738;10.050;2023-10-09T18:34:55;99571.88;;;16.68;100.00
5703;BME280;2876;51.738;10.050;2023-10-09T18:40:57;99568.09;;;16.69;100.00
5703;BME280;2876;51.738;10.050;2023-10-09T18:47:05;99573.09;;;16.72;100.00
5703;BME280;2876;51.738;10.050;2023-10-09T18:53:09;99573.03;;;16.60;100.00
5703;BME280;2876;51.738;10.050;2023-10-09T18:59:15;99576.75;;;17.01;100.00
5703;BME280;2876;51.738;10.050;2023-10-09T19:05:18;99576.03;;;17.06;100.00
5703;BME280;2876;51.738;10.050;2023-10-09T19:11:36;99578.75;;;17.06;100.00
5703;BME280;2876;51.738;10.050;2023-10-09T19:17:41;99578.50;;;17.19;100.00
5703;BME280;2876;51.738;10.050;2023-10-09T19:23:45;99587.22;;;16.97;100.00
5703;BME280;2876;51.738;10.050;2023-10-09T19:29:50;99578.16;;;17.15;100.00
5703;BME280;2876;51.738;10.050;2023-10-09T19:36:03;99599.50;;;17.00;100.00
5703;BME280;2876;51.738;10.050;2023-10-09T19:42:14;99590.53;;;16.88;100.00
5703;BME280;2876;51.738;10.050;2023-10-09T19:48:16;99595.13;;;16.99;100.00
5703;BME280;2876;51.738;10.050;2023-10-09T19:54:21;99582.41;;;16.99;100.00
5703;BME280;2876;51.738;10.050;2023-10-09T20:00:23;99590.06;;;16.91;100.00
5703;BME280;2876;51.738;10.050;2023-10-09T20:06:25;99597.38;;;16.90;100.00
5703;BME280;2876;51.738;10.050;2023-10-09T20:12:29;99596.66;;;16.95;100.00
5703;BME280;2876;51.738;10.050;2023-10-09T20:18:31;99595.56;;;16.84;100.00
5703;BME280;2876;51.738;10.050;2023-10-09T20:24:36;99582.72;;;16.80;100.00
5703;BME280;2876;51.738;10.050;2023-10-09T20:30:39;99595.94;;;16.88;100.00
5703;BME280;2876;51.738;10.050;2023-10-09T20:36:42;99602.19;;;16.88;100.00
5703;BME280;2876;51.738;10.050;2023-10-09T20:42:46;99605.84;;;16.94;100.00
5703;BME280;2876;51.738;10.050;2023-10-09T20:48:49;99609.63;;;17.05;100.00
5703;BME280;2876;51.738;10.050;2023-10-09T20:54:51;99618.69;;;16.98;100.00
5703;BME280;2876;51.738;10.050;2023-10-09T21:00:54;99624.94;;;16.99;100.00
5703;BME280;2876;51.738;10.050;2023-10-09T21:06:57;99628.59;;;17.05;100.00
5703;BME280;2876;51.738;10.050;2023-10-09T21:13:00;99633.78;;;16.94;100.00
5703;BME280;2876;51.738;10.050;2023-10-09T21:19:02;99628.81;;;16.91;100.00
5703;BME280;2876;51.738;10.050;2023-10-09T21:25:06;99618.94;;;16.85;100.00
5703;BME280;2876;51.738;10.050;2023-10-09T21:31:08;99630.47;;;16.92;100.00
5703;BME280;2876;51.738;10.050;2023-10-09T21:37:10;99630.72;;;16.91;100.00
5703;BME280;2876;51.738;10.050;2023-10-09T21:43:12;99628.09;;;16.84;100.00
5703;BME280;2876;51.738;10.050;2023-10-09T21:49:16;99637.31;;;16.95;100.00
5703;BME280;2876;51.738;10.050;2023-10-09T21:55:20;99635.19;;;16.97;100.00
5703;BME280;2876;51.738;10.050;2023-10-09T22:01:23;99647.78;;;17.03;100.00
5703;BME280;2876;51.738;10.050;2023-10-09T22:07:29;99641.66;;;16.96;100.00
5703;BME280;2876;51.738;10.050;2023-10-09T22:13:34;99648.50;;;16.87;100.00
5703;BME280;2876;51.738;10.050;2023-10-09T22:19:37;99630.22;;;16.82;100.00
5703;BME280;2876;51.738;10.050;2023-10-09T22:25:39;99646.03;;;16.85;100.00
5703;BME280;2876;51.738;10.050;2023-10-09T22:31:41;99637.66;;;16.87;100.00
5703;BME280;2876;51.738;10.050;2023-10-09T22:37:48;99633.16;;;16.81;100.00
5703;BME280;2876;51.738;10.050;2023-10-09T22:43:54;99617.50;;;16.83;100.00
5703;BME280;2876;51.738;10.050;2023-10-09T22:49:56;99626.56;;;16.77;100.00
5703;BME280;2876;51.738;10.050;2023-10-09T22:56:00;99640.69;;;16.79;100.00
5703;BME280;2876;51.738;10.050;2023-10-09T23:02:03;99636.09;;;16.79;100.00
5703;BME280;2876;51.738;10.050;2023-10-09T23:08:06;99637.63;;;16.75;100.00
5703;BME280;2876;51.738;10.050;2023-10-09T23:14:18;99634.75;;;16.70;100.00
5703;BME280;2876;51.738;10.050;2023-10-09T23:20:28;99636.91;;;16.80;100.00
5703;BME280;2876;51.738;10.050;2023-10-09T23:26:30;99648.84;;;16.60;100.00
5703;BME280;2876;51.738;10.050;2023-10-09T23:32:35;99642.56;;;16.78;100.00
5703;BME280;2876;51.738;10.050;2023-10-09T23:38:38;99650.03;;;16.64;100.00
5703;BME280;2876;51.738;10.050;2023-10-09T23:44:59;99654.38;;;16.84;100.00
5703;BME280;2876;51.738;10.050;2023-10-09T23:51:07;99657.34;;;16.64;100.00
5703;BME280;2876;51.738;10.050;2023-10-09T23:57:14;99659.16;;;16.40;100.00
